createdAt,value
2023-03-13T00:00:34.513Z,100.00
2023-03-13T00:03:07.401Z,100.00
2023-03-13T00:05:39.434Z,100.00
2023-03-13T00:08:11.546Z,100.00
2023-03-13T00:10:43.485Z,100.00
2023-03-13T00:13:15.586Z,100.00
2023-03-13T00:15:47.721Z,100.00
2023-03-13T00:18:19.828Z,100.00
2023-03-13T00:21:02.703Z,100.00
2023-03-13T00:23:37.678Z,100.00
2023-03-13T00:26:13.617Z,100.00
2023-03-13T00:28:46.856Z,100.00
2023-03-13T00:31:29.755Z,100.00
2023-03-13T00:34:03.893Z,100.00
2023-03-13T00:36:36.843Z,100.00
2023-03-13T00:39:09.708Z,100.00
2023-03-13T00:41:41.748Z,100.00
2023-03-13T00:44:14.402Z,100.00
2023-03-13T00:46:46.418Z,100.00
2023-03-13T00:49:18.537Z,100.00
2023-03-13T00:51:51.087Z,100.00
2023-03-13T00:54:23.201Z,100.00
2023-03-13T00:56:55.215Z,100.00
2023-03-13T00:59:27.236Z,100.00
2023-03-13T01:01:59.224Z,100.00
2023-03-13T01:04:31.237Z,100.00
2023-03-13T01:07:35.515Z,100.00
2023-03-13T01:10:11.329Z,100.00
2023-03-13T01:12:43.303Z,100.00
2023-03-13T01:15:15.596Z,100.00
2023-03-13T01:21:30.040Z,100.00
2023-03-13T01:24:02.801Z,100.00
2023-03-13T01:26:34.891Z,100.00
2023-03-13T01:29:06.952Z,100.00
2023-03-13T01:31:39.102Z,100.00
2023-03-13T01:34:11.642Z,100.00
2023-03-13T01:36:44.161Z,100.00
2023-03-13T01:39:16.768Z,100.00
2023-03-13T01:41:48.820Z,100.00
2023-03-13T01:44:26.872Z,100.00
2023-03-13T01:47:36.012Z,100.00
2023-03-13T01:50:08.408Z,100.00
2023-03-13T01:52:40.509Z,100.00
2023-03-13T01:55:19.197Z,100.00
2023-03-13T01:57:53.851Z,100.00
2023-03-13T02:00:38.976Z,100.00
2023-03-13T02:03:19.862Z,100.00
2023-03-13T02:05:52.345Z,100.00
2023-03-13T02:08:33.538Z,100.00
2023-03-13T02:15:17.776Z,100.00
2023-03-13T02:17:58.759Z,100.00
2023-03-13T02:20:31.235Z,100.00
2023-03-13T02:23:29.407Z,100.00
2023-03-13T02:26:01.931Z,100.00
2023-03-13T02:28:39.427Z,100.00
2023-03-13T02:31:12.538Z,100.00
2023-03-13T02:33:45.065Z,100.00
2023-03-13T02:36:18.035Z,100.00
2023-03-13T02:38:59.911Z,100.00
2023-03-13T02:41:33.621Z,100.00
2023-03-13T02:44:06.959Z,100.00
2023-03-13T02:50:11.398Z,100.00
2023-03-13T02:52:56.997Z,100.00
2023-03-13T02:55:36.227Z,100.00
2023-03-13T02:58:31.765Z,100.00
2023-03-13T03:01:23.587Z,100.00
2023-03-13T03:03:55.645Z,100.00
2023-03-13T03:06:27.754Z,100.00
2023-03-13T03:09:04.143Z,100.00
2023-03-13T03:11:36.206Z,100.00
2023-03-13T03:14:10.046Z,100.00
2023-03-13T03:16:45.876Z,100.00
2023-03-13T03:19:18.076Z,100.00
2023-03-13T03:21:50.127Z,100.00
2023-03-13T03:24:22.300Z,100.00
2023-03-13T03:26:54.355Z,100.00
2023-03-13T03:29:35.750Z,100.00
2023-03-13T03:32:07.821Z,100.00
2023-03-13T03:34:40.019Z,100.00
2023-03-13T03:37:12.083Z,100.00
2023-03-13T03:39:44.615Z,100.00
2023-03-13T03:42:17.803Z,100.00
2023-03-13T03:44:49.789Z,100.00
2023-03-13T03:47:22.014Z,100.00
2023-03-13T03:49:54.181Z,100.00
2023-03-13T03:52:26.661Z,100.00
2023-03-13T03:54:58.720Z,100.00
2023-03-13T03:58:35.231Z,100.00
2023-03-13T04:01:07.360Z,100.00
2023-03-13T04:03:39.448Z,100.00
2023-03-13T04:06:11.533Z,100.00
2023-03-13T04:08:46.748Z,100.00
2023-03-13T04:11:19.258Z,100.00
2023-03-13T04:13:52.158Z,100.00
2023-03-13T04:16:24.248Z,100.00
2023-03-13T04:18:56.359Z,100.00
2023-03-13T04:21:28.417Z,100.00
2023-03-13T04:24:00.473Z,100.00
2023-03-13T04:26:32.440Z,100.00
2023-03-13T04:29:06.387Z,100.00
2023-03-13T04:31:38.401Z,100.00
2023-03-13T04:34:10.473Z,100.00
2023-03-13T04:39:34.100Z,100.00
2023-03-13T04:42:11.103Z,100.00
2023-03-13T04:44:43.918Z,100.00
2023-03-13T04:47:16.132Z,100.00
2023-03-13T04:49:48.312Z,100.00
2023-03-13T04:52:21.301Z,100.00
2023-03-13T04:54:53.361Z,100.00
2023-03-13T04:57:25.497Z,100.00
2023-03-13T04:59:57.719Z,100.00
2023-03-13T05:02:38.421Z,100.00
2023-03-13T05:05:17.887Z,100.00
2023-03-13T05:07:58.701Z,100.00
2023-03-13T05:10:34.246Z,100.00
2023-03-13T05:13:06.375Z,100.00
2023-03-13T05:15:38.389Z,100.00
2023-03-13T05:18:10.674Z,100.00
2023-03-13T05:20:42.686Z,100.00
2023-03-13T05:23:15.347Z,100.00
2023-03-13T05:25:47.425Z,100.00
2023-03-13T05:28:19.522Z,100.00
2023-03-13T05:30:51.786Z,100.00
2023-03-13T05:33:24.004Z,100.00
2023-03-13T05:35:56.560Z,100.00
2023-03-13T05:38:28.739Z,100.00
2023-03-13T05:41:01.032Z,100.00
2023-03-13T05:43:33.054Z,100.00
2023-03-13T05:46:05.352Z,100.00
2023-03-13T05:48:37.493Z,100.00
2023-03-13T05:51:09.658Z,100.00
2023-03-13T05:53:41.836Z,100.00
2023-03-13T05:56:14.862Z,100.00
2023-03-13T05:58:46.965Z,100.00
2023-03-13T06:01:19.127Z,100.00
2023-03-13T06:03:51.830Z,100.00
2023-03-13T06:06:24.001Z,100.00
2023-03-13T06:09:02.097Z,100.00
2023-03-13T06:11:34.254Z,100.00
2023-03-13T06:14:06.429Z,100.00
2023-03-13T06:16:38.576Z,100.00
2023-03-13T06:19:10.751Z,100.00
2023-03-13T06:21:42.967Z,100.00
2023-03-13T06:24:37.028Z,100.00
2023-03-13T06:27:09.124Z,100.00
2023-03-13T06:29:41.293Z,100.00
2023-03-13T06:32:13.602Z,100.00
2023-03-13T06:34:45.853Z,100.00
2023-03-13T06:37:18.659Z,100.00
2023-03-13T06:39:50.951Z,100.00
2023-03-13T06:42:23.101Z,100.00
2023-03-13T06:44:57.339Z,100.00
2023-03-13T06:47:32.578Z,100.00
2023-03-13T06:50:05.302Z,100.00
2023-03-13T06:52:43.882Z,100.00
2023-03-13T06:55:17.613Z,100.00
2023-03-13T06:57:56.344Z,100.00
2023-03-13T07:00:28.932Z,100.00
2023-03-13T07:03:01.666Z,100.00
2023-03-13T07:05:34.272Z,100.00
2023-03-13T07:08:06.879Z,100.00
2023-03-13T07:10:39.008Z,100.00
2023-03-13T07:13:11.280Z,100.00
2023-03-13T07:15:43.505Z,100.00
2023-03-13T07:18:16.090Z,100.00
2023-03-13T07:20:56.362Z,100.00
2023-03-13T07:23:29.744Z,100.00
2023-03-13T07:26:05.967Z,100.00
2023-03-13T07:28:38.393Z,100.00
2023-03-13T07:31:19.533Z,100.00
2023-03-13T07:33:56.780Z,100.00
2023-03-13T07:36:31.197Z,100.00
2023-03-13T07:39:03.323Z,100.00
2023-03-13T07:41:35.681Z,100.00
2023-03-13T07:44:10.624Z,100.00
2023-03-13T07:46:42.925Z,100.00
2023-03-13T07:49:17.123Z,100.00
2023-03-13T07:51:51.408Z,100.00
2023-03-13T07:54:26.790Z,100.00
2023-03-13T07:57:03.327Z,100.00
2023-03-13T07:59:35.820Z,100.00
2023-03-13T08:02:13.992Z,100.00
2023-03-13T08:04:46.311Z,100.00
2023-03-13T08:07:19.184Z,100.00
2023-03-13T08:09:51.785Z,100.00
2023-03-13T08:12:23.889Z,100.00
2023-03-13T08:14:55.964Z,100.00
2023-03-13T08:17:31.042Z,100.00
2023-03-13T08:20:03.553Z,100.00
2023-03-13T08:22:37.279Z,100.00
2023-03-13T08:25:09.861Z,100.00
2023-03-13T08:27:41.952Z,100.00
2023-03-13T08:30:14.890Z,100.00
2023-03-13T08:32:47.130Z,100.00
2023-03-13T08:35:19.286Z,100.00
2023-03-13T08:38:02.147Z,100.00
2023-03-13T08:40:34.328Z,100.00
2023-03-13T08:43:06.999Z,100.00
2023-03-13T08:45:39.108Z,100.00
2023-03-13T08:48:11.147Z,100.00
2023-03-13T08:50:43.281Z,100.00
2023-03-13T08:53:18.908Z,100.00
2023-03-13T08:55:55.029Z,100.00
2023-03-13T08:58:27.657Z,100.00
2023-03-13T09:01:05.527Z,100.00
2023-03-13T09:03:38.681Z,100.00
2023-03-13T09:06:12.555Z,100.00
2023-03-13T09:08:46.189Z,100.00
2023-03-13T09:11:22.801Z,100.00
2023-03-13T09:13:56.621Z,100.00
2023-03-13T09:16:32.682Z,100.00
2023-03-13T09:19:05.426Z,100.00
2023-03-13T09:21:37.607Z,100.00
2023-03-13T09:24:09.729Z,100.00
2023-03-13T09:26:58.537Z,100.00
2023-03-13T09:29:34.782Z,100.00
2023-03-13T09:32:08.029Z,100.00
2023-03-13T09:34:40.490Z,100.00
2023-03-13T09:37:17.908Z,100.00
2023-03-13T09:39:50.223Z,100.00
2023-03-13T09:42:35.776Z,100.00
2023-03-13T09:45:18.184Z,100.00
2023-03-13T09:48:09.134Z,100.00
2023-03-13T09:51:02.047Z,100.00
2023-03-13T09:53:50.163Z,100.00
2023-03-13T09:56:29.781Z,100.00
2023-03-13T09:59:31.849Z,100.00
2023-03-13T10:02:18.168Z,100.00
2023-03-13T10:05:10.567Z,100.00
2023-03-13T10:07:43.347Z,100.00
2023-03-13T10:10:29.480Z,100.00
2023-03-13T10:13:15.889Z,100.00
2023-03-13T10:15:56.859Z,100.00
2023-03-13T10:18:29.003Z,100.00
2023-03-13T10:21:14.393Z,100.00
2023-03-13T10:23:53.953Z,100.00
2023-03-13T10:26:38.108Z,100.00
2023-03-13T10:29:30.766Z,100.00
2023-03-13T10:32:09.094Z,100.00
2023-03-13T10:35:03.497Z,100.00
2023-03-13T10:37:43.983Z,100.00
2023-03-13T10:40:27.368Z,100.00
2023-03-13T10:43:07.627Z,100.00
2023-03-13T10:45:39.669Z,100.00
2023-03-13T10:48:20.871Z,100.00
2023-03-13T10:51:02.242Z,100.00
2023-03-13T10:53:42.262Z,100.00
2023-03-13T10:56:30.835Z,100.00
2023-03-13T10:59:02.877Z,100.00
2023-03-13T11:01:42.615Z,100.00
2023-03-13T11:04:33.322Z,98.00
2023-03-13T11:07:17.034Z,97.08
2023-03-13T11:10:17.451Z,93.61
2023-03-13T11:12:52.641Z,94.33
2023-03-13T11:15:50.090Z,95.15
2023-03-13T11:18:34.758Z,95.94
2023-03-13T11:21:17.586Z,94.46
2023-03-13T11:24:07.614Z,95.51
2023-03-13T11:27:04.818Z,91.63
2023-03-13T11:30:17.537Z,91.72
2023-03-13T11:33:41.068Z,86.10
2023-03-13T11:36:25.788Z,82.26
2023-03-13T11:40:01.192Z,79.42
2023-03-13T11:43:25.562Z,81.15
2023-03-13T11:46:17.263Z,81.03
2023-03-13T11:49:31.999Z,79.15
2023-03-13T11:52:38.227Z,77.04
2023-03-13T11:55:29.880Z,73.87
2023-03-13T11:58:07.688Z,72.65
2023-03-13T12:00:53.860Z,69.59
2023-03-13T12:03:50.840Z,67.42
2023-03-13T12:06:59.506Z,66.26
2023-03-13T12:10:05.584Z,62.47
2023-03-13T12:13:04.680Z,62.72
2023-03-13T12:15:42.456Z,63.59
2023-03-13T12:18:32.088Z,62.31
2023-03-13T12:21:42.975Z,65.20
2023-03-13T12:24:28.681Z,63.33
2023-03-13T12:27:13.929Z,62.30
2023-03-13T12:30:19.427Z,61.55
2023-03-13T12:33:40.610Z,63.10
2023-03-13T12:36:38.287Z,61.06
2023-03-13T12:39:37.718Z,60.52
2023-03-13T12:42:51.904Z,60.17
2023-03-13T12:45:39.620Z,58.83
2023-03-13T12:49:06.507Z,60.03
2023-03-13T12:52:24.183Z,59.38
2023-03-13T12:55:38.819Z,60.01
2023-03-13T12:58:30.414Z,59.20
2023-03-13T13:01:06.088Z,58.07
2023-03-13T13:04:11.984Z,54.92
2023-03-13T13:07:04.370Z,57.58
2023-03-13T13:09:40.253Z,58.77
2023-03-13T13:12:27.047Z,58.11
2023-03-13T13:15:06.767Z,58.97
2023-03-13T13:17:55.865Z,59.05
2023-03-13T13:20:39.396Z,59.07
2023-03-13T13:23:46.737Z,58.65
2023-03-13T13:26:39.148Z,59.48
2023-03-13T13:29:15.917Z,58.35
2023-03-13T13:31:48.879Z,58.67
2023-03-13T13:34:34.550Z,60.04
2023-03-13T13:37:13.010Z,60.24
2023-03-13T13:42:57.707Z,58.89
2023-03-13T13:45:36.957Z,58.18
2023-03-13T13:48:29.739Z,56.71
2023-03-13T13:51:11.527Z,57.69
2023-03-13T13:54:01.060Z,57.21
2023-03-13T13:56:38.766Z,57.59
2023-03-13T13:59:30.000Z,54.67
2023-03-13T14:02:10.206Z,55.82
2023-03-13T14:05:02.007Z,55.89
2023-03-13T14:07:40.138Z,55.52
2023-03-13T14:10:32.758Z,55.24
2023-03-13T14:13:20.554Z,54.68
2023-03-13T14:15:54.196Z,53.58
2023-03-13T14:18:29.593Z,54.89
2023-03-13T14:21:05.267Z,55.11
2023-03-13T14:23:44.410Z,56.42
2023-03-13T14:26:27.731Z,56.58
2023-03-13T14:29:05.997Z,56.73
2023-03-13T14:31:40.040Z,55.55
2023-03-13T14:34:13.701Z,55.58
2023-03-13T14:37:11.165Z,55.55
2023-03-13T14:39:50.325Z,55.80
2023-03-13T14:42:23.472Z,56.46
2023-03-13T14:44:58.074Z,55.37
2023-03-13T14:47:31.738Z,55.17
2023-03-13T14:50:11.205Z,54.86
2023-03-13T14:52:54.393Z,54.71
2023-03-13T14:55:32.826Z,55.64
2023-03-13T14:58:27.102Z,55.84
2023-03-13T15:00:59.385Z,55.97
2023-03-13T15:03:33.946Z,54.15
2023-03-13T15:06:14.390Z,54.25
2023-03-13T15:09:08.992Z,52.80
2023-03-13T15:11:59.947Z,52.70
2023-03-13T15:14:38.178Z,52.12
2023-03-13T15:17:26.200Z,51.87
2023-03-13T15:19:59.848Z,52.41
2023-03-13T15:22:44.481Z,52.48
2023-03-13T15:25:23.886Z,51.95
2023-03-13T15:27:56.110Z,51.99
2023-03-13T15:30:28.158Z,51.66
2023-03-13T15:33:03.938Z,52.02
2023-03-13T15:35:36.751Z,51.62
2023-03-13T15:38:21.205Z,51.67
2023-03-13T15:40:53.760Z,50.73
2023-03-13T15:43:26.375Z,50.26
2023-03-13T15:46:01.249Z,50.79
2023-03-13T15:48:38.285Z,50.63
2023-03-13T15:51:16.013Z,51.05
2023-03-13T15:53:48.508Z,50.54
2023-03-13T15:56:25.539Z,51.24
2023-03-13T15:58:58.668Z,52.13
2023-03-13T16:01:34.266Z,52.85
2023-03-13T16:04:09.903Z,53.51
2023-03-13T16:06:42.064Z,54.17
2023-03-13T16:09:14.222Z,54.24
2023-03-13T16:11:46.395Z,54.92
2023-03-13T16:14:18.625Z,55.13
2023-03-13T16:16:52.991Z,55.66
2023-03-13T16:19:25.489Z,56.53
2023-03-13T16:21:57.823Z,57.34
2023-03-13T16:24:32.953Z,56.41
2023-03-13T16:27:17.817Z,56.81
2023-03-13T16:29:51.760Z,56.92
2023-03-13T16:32:28.268Z,56.56
2023-03-13T16:35:00.362Z,57.37
2023-03-13T16:37:32.674Z,57.55
2023-03-13T16:40:25.335Z,57.77
2023-03-13T16:42:57.832Z,58.40
2023-03-13T16:45:30.128Z,58.42
2023-03-13T16:48:08.313Z,58.38
2023-03-13T16:50:41.002Z,58.39
2023-03-13T16:53:13.283Z,57.92
2023-03-13T16:55:45.643Z,58.21
2023-03-13T16:58:18.184Z,58.49
2023-03-13T17:01:04.308Z,59.01
2023-03-13T17:03:37.289Z,59.34
2023-03-13T17:06:19.029Z,59.32
2023-03-13T17:08:51.728Z,59.42
2023-03-13T17:11:25.015Z,59.86
2023-03-13T17:14:00.509Z,60.53
2023-03-13T17:16:42.554Z,60.25
2023-03-13T17:19:17.121Z,60.78
2023-03-13T17:21:49.328Z,61.09
2023-03-13T17:24:21.415Z,62.03
2023-03-13T17:26:53.434Z,62.34
2023-03-13T17:29:26.794Z,62.79
2023-03-13T17:32:02.776Z,63.36
2023-03-13T17:34:35.644Z,63.67
2023-03-13T17:37:21.873Z,63.50
2023-03-13T17:39:54.004Z,64.24
2023-03-13T17:42:29.582Z,64.71
2023-03-13T17:45:01.606Z,64.87
2023-03-13T17:47:33.696Z,65.06
2023-03-13T17:50:27.454Z,65.15
2023-03-13T17:52:59.724Z,66.36
2023-03-13T17:55:31.901Z,66.66
2023-03-13T17:58:04.078Z,67.10
2023-03-13T18:00:36.243Z,66.82
2023-03-13T18:03:08.628Z,66.79
2023-03-13T18:05:43.534Z,67.30
2023-03-13T18:08:15.797Z,68.27
2023-03-13T18:10:47.963Z,68.66
2023-03-13T18:13:19.995Z,69.40
2023-03-13T18:15:52.138Z,69.94
2023-03-13T18:18:24.251Z,69.95
2023-03-13T18:20:56.457Z,70.11
2023-03-13T18:23:28.713Z,69.25
2023-03-13T18:26:01.401Z,70.38
2023-03-13T18:28:33.420Z,70.33
2023-03-13T18:31:06.267Z,70.46
2023-03-13T18:33:38.401Z,70.04
2023-03-13T18:36:20.774Z,69.68
2023-03-13T18:38:53.369Z,69.39
2023-03-13T18:41:25.705Z,68.58
2023-03-13T18:43:57.744Z,66.23
2023-03-13T18:46:33.468Z,65.05
2023-03-13T18:49:06.324Z,64.09
2023-03-13T18:51:40.040Z,63.24
2023-03-13T18:54:12.371Z,61.38
2023-03-13T18:56:47.406Z,61.28
2023-03-13T18:59:22.132Z,60.12
2023-03-13T19:01:57.236Z,59.35
2023-03-13T19:04:29.289Z,60.16
2023-03-13T19:07:01.377Z,59.73
2023-03-13T19:09:48.727Z,59.70
2023-03-13T19:12:20.822Z,60.99
2023-03-13T19:14:55.723Z,61.03
2023-03-13T19:17:32.674Z,61.58
2023-03-13T19:20:05.566Z,62.35
2023-03-13T19:22:40.562Z,62.63
2023-03-13T19:25:16.608Z,63.63
2023-03-13T19:27:52.057Z,64.39
2023-03-13T19:30:26.230Z,64.80
2023-03-13T19:33:01.255Z,65.83
2023-03-13T19:35:39.823Z,66.84
2023-03-13T19:38:12.750Z,68.89
2023-03-13T19:40:44.893Z,69.09
2023-03-13T19:43:23.005Z,69.57
2023-03-13T19:45:55.453Z,69.54
2023-03-13T19:48:27.797Z,70.86
2023-03-13T19:51:00.285Z,70.42
2023-03-13T19:53:32.333Z,70.60
2023-03-13T19:56:24.932Z,71.50
2023-03-13T19:59:04.690Z,71.54
2023-03-13T20:01:37.107Z,71.84
2023-03-13T20:04:10.199Z,71.76
2023-03-13T20:06:46.832Z,71.97
2023-03-13T20:09:21.075Z,72.53
2023-03-13T20:11:53.455Z,73.04
2023-03-13T20:14:25.931Z,74.22
2023-03-13T20:16:59.274Z,74.31
2023-03-13T20:19:31.773Z,74.64
2023-03-13T20:22:05.352Z,75.27
2023-03-13T20:24:38.852Z,75.75
2023-03-13T20:27:11.916Z,76.04
2023-03-13T20:29:44.434Z,76.03
2023-03-13T20:32:16.985Z,76.31
2023-03-13T20:34:49.124Z,76.87
2023-03-13T20:37:34.946Z,76.72
2023-03-13T20:40:10.886Z,76.54
2023-03-13T20:42:43.069Z,77.03
2023-03-13T20:45:21.032Z,77.41
2023-03-13T20:47:56.103Z,77.82
2023-03-13T20:50:28.404Z,77.65
2023-03-13T20:53:00.578Z,78.47
2023-03-13T20:55:38.712Z,79.87
2023-03-13T20:58:10.946Z,80.82
2023-03-13T21:00:43.627Z,81.65
2023-03-13T21:03:17.535Z,81.62
2023-03-13T21:05:49.748Z,81.67
2023-03-13T21:08:23.097Z,83.18
2023-03-13T21:10:58.164Z,83.43
2023-03-13T21:13:30.524Z,83.63
2023-03-13T21:16:05.788Z,85.14
2023-03-13T21:18:38.130Z,85.18
2023-03-13T21:21:15.301Z,86.12
2023-03-13T21:23:47.742Z,86.78
2023-03-13T21:26:20.369Z,87.12
2023-03-13T21:28:54.574Z,87.56
2023-03-13T21:31:26.938Z,87.27
2023-03-13T21:34:00.802Z,87.03
2023-03-13T21:36:32.993Z,86.55
2023-03-13T21:39:08.029Z,86.35
2023-03-13T21:41:40.730Z,86.10
2023-03-13T21:44:12.970Z,86.06
2023-03-13T21:46:47.266Z,86.50
2023-03-13T21:49:20.602Z,86.95
2023-03-13T21:51:52.626Z,86.83
2023-03-13T21:54:27.627Z,87.36
2023-03-13T21:56:59.708Z,87.83
2023-03-13T21:59:32.154Z,88.04
2023-03-13T22:02:04.221Z,88.35
2023-03-13T22:04:36.511Z,88.05
2023-03-13T22:07:09.761Z,87.71
2023-03-13T22:09:41.857Z,87.56
2023-03-13T22:12:16.724Z,87.21
2023-03-13T22:14:49.905Z,87.33
2023-03-13T22:17:23.553Z,87.18
2023-03-13T22:19:56.096Z,87.59
2023-03-13T22:22:28.683Z,88.46
2023-03-13T22:25:04.228Z,94.38
2023-03-13T22:27:42.256Z,100.00
2023-03-13T22:33:09.006Z,100.00
2023-03-13T22:35:44.271Z,100.00
2023-03-13T22:38:19.898Z,100.00
2023-03-13T22:41:05.097Z,100.00
2023-03-13T22:43:37.466Z,100.00
2023-03-13T22:46:14.197Z,100.00
2023-03-13T22:48:46.266Z,100.00
2023-03-13T22:51:18.442Z,100.00
2023-03-13T22:53:50.979Z,100.00
2023-03-13T22:56:25.163Z,100.00
2023-03-13T22:58:58.663Z,100.00
2023-03-13T23:01:33.428Z,100.00
2023-03-13T23:04:08.268Z,100.00
2023-03-13T23:06:40.575Z,100.00
2023-03-13T23:09:12.606Z,100.00
2023-03-13T23:11:44.744Z,100.00
2023-03-13T23:14:19.643Z,100.00
2023-03-13T23:16:51.941Z,100.00
2023-03-13T23:19:24.163Z,100.00
2023-03-13T23:21:56.396Z,100.00
2023-03-13T23:24:28.766Z,100.00
2023-03-13T23:27:00.870Z,100.00
2023-03-13T23:29:33.148Z,100.00
2023-03-13T23:32:07.539Z,100.00
2023-03-13T23:34:39.689Z,100.00
2023-03-13T23:37:12.065Z,100.00
2023-03-13T23:39:44.329Z,100.00
2023-03-13T23:42:19.218Z,100.00
2023-03-13T23:44:54.883Z,100.00
2023-03-13T23:47:28.598Z,100.00
2023-03-13T23:50:04.073Z,100.00
2023-03-13T23:52:36.843Z,100.00
2023-03-13T23:55:12.902Z,100.00
2023-03-13T23:57:49.439Z,100.00
